Time;durP1;ratioP1;P1;durP2;ratioP2;P2;SDS_P1;SDS_P2;PMS_P1;PMS_P2;Temp;Humidity;BMP_temperature;BMP_pressure;BME280_temperature;BME280_humidity;BME280_pressure;Samples;Min_cycle;Max_cycle;Signal;HPM_P1;HPM_P2
2021/10/26 00:00:58;;;;;;;;;;;12.20;99.90;;;;;;8345998;28;20036;-73
2021/10/26 00:05:00;;;;;;;;;;;12.20;99.90;;;;;;8337097;28;19936;-73
2021/10/26 00:09:03;;;;;;;;;;;12.10;99.90;;;;;;8331823;28;20015;-73
2021/10/26 00:13:04;;;;;;;;;;;12.10;99.90;;;;;;8332372;28;20288;-73
2021/10/26 00:17:06;;;;;;;;;;;12.10;99.90;;;;;;8366923;28;19925;-73
2021/10/26 00:21:08;;;;;;;;;;;12.10;99.90;;;;;;8330491;28;19925;-73
2021/10/26 00:25:10;;;;;;;;;;;12.10;99.90;;;;;;8348307;28;20403;-73
2021/10/26 00:29:11;;;;;;;;;;;12.20;99.90;;;;;;8337785;28;19929;-73
2021/10/26 00:33:13;;;;;;;;;;;12.20;99.90;;;;;;8333187;28;19925;-73
2021/10/26 00:37:15;;;;;;;;;;;12.20;99.90;;;;;;8340734;28;19924;-73
2021/10/26 00:41:16;;;;;;;;;;;12.10;99.90;;;;;;8350618;28;19924;-73
2021/10/26 00:45:18;;;;;;;;;;;12.10;99.90;;;;;;8339118;28;20332;-73
2021/10/26 00:49:20;;;;;;;;;;;12.10;99.90;;;;;;8362406;28;19925;-74
2021/10/26 00:53:21;;;;;;;;;;;12.10;99.90;;;;;;8342939;28;20293;-73
2021/10/26 00:57:25;;;;;;;;;;;12.10;99.90;;;;;;8347356;28;19932;-73
2021/10/26 01:01:27;;;;;;;;;;;12.10;99.90;;;;;;8337518;28;19925;-73
2021/10/26 01:05:29;;;;;;;;;;;12.10;99.90;;;;;;8337702;28;19925;-73
2021/10/26 01:09:31;;;;;;;;;;;12.10;99.90;;;;;;8332580;28;20392;-73
2021/10/26 01:13:33;;;;;;;;;;;12.10;99.90;;;;;;8364402;28;19936;-73
2021/10/26 01:17:34;;;;;;;;;;;12.10;99.90;;;;;;8343475;28;19936;-73
2021/10/26 01:21:36;;;;;;;;;;;12.20;99.90;;;;;;8346339;28;19926;-74
2021/10/26 01:25:38;;;;;;;;;;;12.10;99.90;;;;;;8342129;28;19932;-73
2021/10/26 01:29:39;;;;;;;;;;;12.20;99.90;;;;;;8333842;28;19925;-73
2021/10/26 01:33:41;;;;;;;;;;;12.10;99.90;;;;;;8359402;28;19924;-73
2021/10/26 01:37:43;;;;;;;;;;;12.10;99.90;;;;;;8348308;28;19928;-73
2021/10/26 01:41:45;;;;;;;;;;;12.20;99.90;;;;;;8351784;28;19921;-73
2021/10/26 01:45:47;;;;;;;;;;;12.20;99.90;;;;;;8358964;28;19928;-73
2021/10/26 01:49:49;;;;;;;;;;;12.20;99.90;;;;;;8349630;28;19921;-73
2021/10/26 01:53:50;;;;;;;;;;;12.20;99.90;;;;;;8339092;28;19928;-73
2021/10/26 01:57:52;;;;;;;;;;;12.20;99.90;;;;;;8340475;28;20419;-73
2021/10/26 02:01:54;;;;;;;;;;;12.20;99.90;;;;;;8339261;28;19943;-73
2021/10/26 02:05:56;;;;;;;;;;;12.20;99.90;;;;;;8330774;28;19966;-73
2021/10/26 02:09:58;;;;;;;;;;;12.20;99.90;;;;;;8343348;28;19976;-73
2021/10/26 02:13:59;;;;;;;;;;;12.20;99.90;;;;;;8343734;28;20396;-73
2021/10/26 02:18:01;;;;;;;;;;;12.20;99.90;;;;;;8332275;28;20313;-73
2021/10/26 02:22:03;;;;;;;;;;;12.10;99.90;;;;;;8330845;28;20642;-73
2021/10/26 02:26:05;;;;;;;;;;;12.10;99.90;;;;;;8347494;28;20392;-73
2021/10/26 02:30:07;;;;;;;;;;;12.00;99.90;;;;;;8340703;28;20298;-73
2021/10/26 02:34:09;;;;;;;;;;;11.90;99.90;;;;;;8333537;28;19921;-73
2021/10/26 02:38:11;;;;;;;;;;;11.90;99.90;;;;;;8335798;28;19921;-73
2021/10/26 02:42:12;;;;;;;;;;;11.80;99.90;;;;;;8346503;28;19935;-73
2021/10/26 02:46:14;;;;;;;;;;;11.70;99.90;;;;;;8341928;28;19920;-73
2021/10/26 02:50:17;;;;;;;;;;;11.70;99.90;;;;;;8344797;28;19920;-73
2021/10/26 02:54:18;;;;;;;;;;;11.60;99.90;;;;;;8339244;28;19949;-73
2021/10/26 02:58:20;;;;;;;;;;;11.50;99.90;;;;;;8328057;28;19932;-73
2021/10/26 03:02:22;;;;;;;;;;;11.50;99.90;;;;;;8340924;28;19932;-73
2021/10/26 03:06:24;;;;;;;;;;;11.50;99.90;;;;;;8341186;28;19986;-73
2021/10/26 03:10:26;;;;;;;;;;;11.50;99.90;;;;;;8342266;28;20299;-73
2021/10/26 03:14:27;;;;;;;;;;;11.50;99.90;;;;;;8346420;28;20292;-73
2021/10/26 03:18:29;;;;;;;;;;;11.60;99.90;;;;;;8344374;28;19921;-72
2021/10/26 03:22:31;;;;;;;;;;;11.60;99.90;;;;;;8327246;28;19922;-73
2021/10/26 03:26:33;;;;;;;;;;;11.60;99.90;;;;;;8344015;28;19930;-73
2021/10/26 03:30:34;;;;;;;;;;;11.60;99.90;;;;;;8343232;28;19932;-73
2021/10/26 03:34:36;;;;;;;;;;;11.60;99.90;;;;;;8339915;28;19928;-73
2021/10/26 03:38:40;;;;;;;;;;;11.60;99.90;;;;;;8342869;28;20214;-73
2021/10/26 03:42:42;;;;;;;;;;;11.60;99.90;;;;;;8346874;28;19931;-73
2021/10/26 03:46:44;;;;;;;;;;;11.60;99.90;;;;;;8340633;28;20361;-73
2021/10/26 03:50:46;;;;;;;;;;;11.60;99.90;;;;;;8351994;28;19952;-73
2021/10/26 03:54:49;;;;;;;;;;;11.60;99.90;;;;;;8342400;28;19928;-73
2021/10/26 03:58:51;;;;;;;;;;;11.60;99.90;;;;;;8329083;28;19921;-73
2021/10/26 04:02:53;;;;;;;;;;;11.60;99.90;;;;;;8331680;28;20357;-73
2021/10/26 04:06:55;;;;;;;;;;;11.60;99.90;;;;;;8335261;28;19956;-73
2021/10/26 04:11:04;;;;;;;;;;;11.60;99.90;;;;;;8346496;28;19921;-73
2021/10/26 04:15:06;;;;;;;;;;;11.50;99.90;;;;;;8344391;28;19956;-73
2021/10/26 04:19:09;;;;;;;;;;;11.50;99.90;;;;;;8343395;28;20292;-73
2021/10/26 04:23:11;;;;;;;;;;;11.50;99.90;;;;;;8317063;28;19921;-74
2021/10/26 04:27:13;;;;;;;;;;;11.50;99.90;;;;;;8326290;28;19925;-74
2021/10/26 04:31:15;;;;;;;;;;;11.40;99.90;;;;;;8321504;28;19928;-73
2021/10/26 04:35:17;;;;;;;;;;;11.40;99.90;;;;;;8352194;28;19921;-73
2021/10/26 04:39:18;;;;;;;;;;;11.40;99.90;;;;;;8311539;28;19921;-73
2021/10/26 04:43:20;;;;;;;;;;;11.30;99.90;;;;;;8332271;28;19944;-73
2021/10/26 04:47:23;;;;;;;;;;;11.30;99.90;;;;;;8337042;28;19928;-73
2021/10/26 04:51:24;;;;;;;;;;;11.30;99.90;;;;;;8329619;28;19925;-73
2021/10/26 04:55:26;;;;;;;;;;;11.20;99.90;;;;;;8331889;28;19920;-73
2021/10/26 04:59:27;;;;;;;;;;;11.20;99.90;;;;;;8322059;28;20398;-74
2021/10/26 05:03:31;;;;;;;;;;;11.20;99.90;;;;;;8333605;28;19921;-73
2021/10/26 05:07:33;;;;;;;;;;;11.20;99.90;;;;;;8333569;28;19925;-73
2021/10/26 05:11:35;;;;;;;;;;;11.30;99.90;;;;;;8340702;28;19927;-73
2021/10/26 05:15:37;;;;;;;;;;;11.20;99.90;;;;;;8323690;28;19928;-73
2021/10/26 05:19:39;;;;;;;;;;;11.20;99.90;;;;;;8338143;28;19963;-73
2021/10/26 05:23:45;;;;;;;;;;;11.20;99.90;;;;;;8354864;28;20276;-73
2021/10/26 05:27:47;;;;;;;;;;;11.20;99.90;;;;;;8268367;28;1804637;-73
2021/10/26 05:31:48;;;;;;;;;;;11.20;99.90;;;;;;8342148;28;20257;-74
2021/10/26 05:35:50;;;;;;;;;;;11.10;99.90;;;;;;8336941;28;19925;-73
2021/10/26 05:39:53;;;;;;;;;;;11.10;99.90;;;;;;8330802;28;19927;-73
2021/10/26 05:43:54;;;;;;;;;;;11.10;99.90;;;;;;8330029;28;19925;-73
2021/10/26 05:47:56;;;;;;;;;;;11.00;99.90;;;;;;8336374;28;19924;-74
2021/10/26 05:51:58;;;;;;;;;;;10.90;99.90;;;;;;8338842;28;19925;-73
2021/10/26 05:56:00;;;;;;;;;;;10.90;99.90;;;;;;8325462;28;19925;-73
2021/10/26 06:00:03;;;;;;;;;;;10.80;99.90;;;;;;8338043;28;19925;-73
2021/10/26 06:04:05;;;;;;;;;;;10.80;99.90;;;;;;8334520;28;19933;-73
2021/10/26 06:08:07;;;;;;;;;;;10.80;99.90;;;;;;8339154;28;19978;-73
2021/10/26 06:12:15;;;;;;;;;;;10.80;99.90;;;;;;8362625;28;19925;-73
2021/10/26 06:16:17;;;;;;;;;;;10.70;99.90;;;;;;8329884;28;19932;-73
2021/10/26 06:20:18;;;;;;;;;;;10.70;99.90;;;;;;8332212;28;19937;-73
2021/10/26 06:24:20;;;;;;;;;;;10.60;99.90;;;;;;8335459;28;19933;-73
2021/10/26 06:28:23;;;;;;;;;;;10.60;99.90;;;;;;8328189;28;19926;-74
2021/10/26 06:32:25;;;;;;;;;;;10.60;99.90;;;;;;8328808;28;19954;-73
2021/10/26 06:36:41;;;;;;;;;;;10.60;99.90;;;;;;8362882;28;19928;-73
2021/10/26 06:40:43;;;;;;;;;;;10.60;99.90;;;;;;8324724;28;20063;-73
2021/10/26 06:44:45;;;;;;;;;;;10.60;99.90;;;;;;8347948;28;19928;-73
2021/10/26 06:48:47;;;;;;;;;;;10.60;99.90;;;;;;8323995;28;19928;-74
2021/10/26 06:52:48;;;;;;;;;;;10.60;99.90;;;;;;8316225;28;20282;-73
2021/10/26 06:56:50;;;;;;;;;;;10.50;99.90;;;;;;8336771;28;20282;-73
2021/10/26 07:00:52;;;;;;;;;;;10.50;99.90;;;;;;8334944;28;19928;-73
2021/10/26 07:04:58;;;;;;;;;;;10.50;99.90;;;;;;8342695;28;19931;-73
2021/10/26 07:09:00;;;;;;;;;;;10.40;99.90;;;;;;8340782;28;19929;-73
2021/10/26 07:13:02;;;;;;;;;;;10.40;99.90;;;;;;8348522;28;19927;-73
2021/10/26 07:17:04;;;;;;;;;;;10.40;99.90;;;;;;8331585;28;19925;-74
2021/10/26 07:21:06;;;;;;;;;;;10.40;99.90;;;;;;8321792;28;19928;-73
2021/10/26 07:25:09;;;;;;;;;;;10.50;99.90;;;;;;8335253;28;19920;-73
2021/10/26 07:29:11;;;;;;;;;;;10.50;99.90;;;;;;8323950;28;19921;-73
2021/10/26 07:33:19;;;;;;;;;;;10.60;99.90;;;;;;8323993;28;19925;-73
2021/10/26 07:37:25;;;;;;;;;;;10.60;99.90;;;;;;8338560;28;19932;-73
2021/10/26 07:41:27;;;;;;;;;;;10.70;99.90;;;;;;8339081;28;20292;-73
2021/10/26 07:45:29;;;;;;;;;;;10.70;99.90;;;;;;8317733;28;20223;-73
2021/10/26 07:49:31;;;;;;;;;;;10.80;99.90;;;;;;8323920;28;19921;-73
2021/10/26 07:53:36;;;;;;;;;;;10.90;99.90;;;;;;8325318;28;20004;-73
2021/10/26 07:57:38;;;;;;;;;;;11.00;99.90;;;;;;8335093;28;19952;-73
2021/10/26 08:01:41;;;;;;;;;;;11.20;99.90;;;;;;8309265;28;19928;-73
2021/10/26 08:05:43;;;;;;;;;;;11.30;99.90;;;;;;8325834;28;19948;-73
2021/10/26 08:09:44;;;;;;;;;;;11.50;99.90;;;;;;8327720;28;19921;-73
2021/10/26 08:13:46;;;;;;;;;;;11.60;99.90;;;;;;8338748;28;20368;-74
2021/10/26 08:17:48;;;;;;;;;;;11.70;99.90;;;;;;8331730;28;20320;-73
2021/10/26 08:21:50;;;;;;;;;;;11.80;99.90;;;;;;8331258;28;19921;-73
2021/10/26 08:25:55;;;;;;;;;;;11.80;99.90;;;;;;8339026;28;19921;-74
2021/10/26 08:30:10;;;;;;;;;;;11.80;99.90;;;;;;8343057;28;19940;-73
2021/10/26 08:34:30;;;;;;;;;;;11.80;99.90;;;;;;8344746;28;19928;-73
2021/10/26 08:38:33;;;;;;;;;;;11.90;99.90;;;;;;8333031;28;19974;-73
2021/10/26 08:42:35;;;;;;;;;;;11.80;99.90;;;;;;8346113;28;19965;-74
2021/10/26 08:46:37;;;;;;;;;;;11.90;99.90;;;;;;8343392;28;19921;-73
2021/10/26 08:50:39;;;;;;;;;;;11.80;99.90;;;;;;8333813;28;19928;-73
2021/10/26 08:54:41;;;;;;;;;;;11.80;99.90;;;;;;8371034;28;19929;-73
2021/10/26 08:58:43;;;;;;;;;;;11.80;99.90;;;;;;8334990;28;19936;-73
2021/10/26 09:02:47;;;;;;;;;;;11.80;99.90;;;;;;8336995;28;19968;-73
2021/10/26 09:06:56;;;;;;;;;;;11.80;99.90;;;;;;8326851;28;19952;-73
2021/10/26 09:11:03;;;;;;;;;;;11.90;99.90;;;;;;8325631;28;19921;-73
2021/10/26 09:19:27;;;;;;;;;;;11.80;99.90;;;;;;8322950;28;19967;-73
2021/10/26 09:23:28;;;;;;;;;;;11.90;99.90;;;;;;8352007;28;19932;-73
2021/10/26 09:27:33;;;;;;;;;;;11.90;99.90;;;;;;8326446;28;19967;-73
2021/10/26 09:31:38;;;;;;;;;;;11.90;99.90;;;;;;8340707;28;20281;-73
2021/10/26 09:35:40;;;;;;;;;;;11.90;99.90;;;;;;8326157;28;20323;-73
2021/10/26 09:39:52;;;;;;;;;;;12.00;99.90;;;;;;8323362;28;21203;-73
2021/10/26 09:44:07;;;;;;;;;;;12.00;99.90;;;;;;8336221;28;19929;-73
2021/10/26 09:48:14;;;;;;;;;;;12.10;99.90;;;;;;8322924;28;20396;-73
2021/10/26 09:52:17;;;;;;;;;;;12.10;99.90;;;;;;8345639;28;19921;-73
2021/10/26 09:56:19;;;;;;;;;;;12.10;99.90;;;;;;8318749;28;19965;-73
2021/10/26 10:00:34;;;;;;;;;;;12.10;99.90;;;;;;8329731;28;20182;-73
2021/10/26 10:04:36;;;;;;;;;;;12.20;99.90;;;;;;8322555;28;19932;-73
2021/10/26 10:08:38;;;;;;;;;;;12.20;99.90;;;;;;8328555;28;19924;-73
2021/10/26 10:12:45;;;;;;;;;;;12.20;99.90;;;;;;8328836;28;19968;-73
2021/10/26 10:16:47;;;;;;;;;;;12.20;99.90;;;;;;8324092;28;19979;-73
2021/10/26 10:20:53;;;;;;;;;;;12.20;99.90;;;;;;8313454;28;19933;-73
2021/10/26 10:24:59;;;;;;;;;;;12.20;99.90;;;;;;8327367;28;19920;-74
2021/10/26 10:29:01;;;;;;;;;;;12.20;99.90;;;;;;8343980;28;19920;-73
2021/10/26 10:33:03;;;;;;;;;;;12.20;99.90;;;;;;8324359;28;19925;-73
2021/10/26 10:37:04;;;;;;;;;;;12.20;99.90;;;;;;8330523;28;19925;-73
2021/10/26 10:41:27;;;;;;;;;;;12.20;99.90;;;;;;8345713;28;19928;-72
2021/10/26 10:45:34;;;;;;;;;;;12.20;99.90;;;;;;8335196;28;20329;-73
2021/10/26 10:49:42;;;;;;;;;;;12.10;99.90;;;;;;8335319;28;19988;-72
2021/10/26 10:53:45;;;;;;;;;;;12.10;99.90;;;;;;8343469;28;20342;-73
2021/10/26 10:57:47;;;;;;;;;;;12.20;99.90;;;;;;8333142;28;19920;-73
2021/10/26 11:02:08;;;;;;;;;;;12.20;99.90;;;;;;8344198;28;19952;-73
2021/10/26 11:06:30;;;;;;;;;;;12.20;99.90;;;;;;8329192;28;19928;-73
2021/10/26 11:10:50;;;;;;;;;;;12.30;99.90;;;;;;8328125;28;19928;-73
2021/10/26 11:14:55;;;;;;;;;;;12.30;99.90;;;;;;8325732;28;20360;-73
2021/10/26 11:18:57;;;;;;;;;;;12.40;99.90;;;;;;8323627;28;20002;-73
2021/10/26 11:23:02;;;;;;;;;;;12.40;99.90;;;;;;8315143;28;19925;-73
2021/10/26 11:27:24;;;;;;;;;;;12.60;99.90;;;;;;8338254;28;19924;-73
2021/10/26 11:31:27;;;;;;;;;;;12.80;99.90;;;;;;8349048;28;20386;-73
2021/10/26 11:35:39;;;;;;;;;;;13.20;99.90;;;;;;8343443;28;19920;-73
2021/10/26 11:39:41;;;;;;;;;;;13.40;99.90;;;;;;8336086;28;19921;-73
2021/10/26 11:43:44;;;;;;;;;;;13.40;99.90;;;;;;8331986;28;19925;-73
2021/10/26 11:47:46;;;;;;;;;;;13.30;99.90;;;;;;8341236;28;19943;-73
2021/10/26 11:51:49;;;;;;;;;;;13.40;99.90;;;;;;8335652;28;19943;-73
2021/10/26 11:55:51;;;;;;;;;;;13.40;99.90;;;;;;8339516;28;19971;-73
2021/10/26 11:59:59;;;;;;;;;;;13.40;99.90;;;;;;8335952;28;19936;-73
2021/10/26 12:04:04;;;;;;;;;;;13.40;99.90;;;;;;8340454;28;19974;-73
2021/10/26 12:08:06;;;;;;;;;;;13.40;99.90;;;;;;8335756;28;19926;-72
2021/10/26 12:12:13;;;;;;;;;;;13.50;99.90;;;;;;8337186;28;20288;-74
2021/10/26 12:16:14;;;;;;;;;;;13.50;99.90;;;;;;8335021;28;19925;-73
2021/10/26 12:20:21;;;;;;;;;;;13.60;99.90;;;;;;8332799;28;19933;-73
2021/10/26 12:24:27;;;;;;;;;;;13.60;99.90;;;;;;8314875;28;19982;-73
2021/10/26 12:28:28;;;;;;;;;;;13.70;99.90;;;;;;8336498;28;19925;-73
2021/10/26 12:32:30;;;;;;;;;;;13.80;99.90;;;;;;8362395;28;19997;-73
2021/10/26 12:36:32;;;;;;;;;;;13.80;99.90;;;;;;8322603;28;19921;-73
2021/10/26 12:40:42;;;;;;;;;;;13.80;99.90;;;;;;8319231;28;19921;-73
2021/10/26 12:44:53;;;;;;;;;;;13.80;99.90;;;;;;8338736;28;19932;-73
2021/10/26 12:49:09;;;;;;;;;;;13.90;99.90;;;;;;8329353;28;19932;-73
2021/10/26 12:53:16;;;;;;;;;;;13.90;99.90;;;;;;8332429;28;20034;-74
2021/10/26 12:57:34;;;;;;;;;;;14.00;99.90;;;;;;8331888;28;19929;-73
2021/10/26 13:01:37;;;;;;;;;;;14.00;99.90;;;;;;8327355;28;19925;-73
2021/10/26 13:05:51;;;;;;;;;;;14.00;99.90;;;;;;8344961;28;19921;-74
2021/10/26 13:09:54;;;;;;;;;;;14.00;99.90;;;;;;8320564;28;20095;-73
2021/10/26 13:14:07;;;;;;;;;;;14.00;99.90;;;;;;8333444;28;19956;-73
2021/10/26 13:18:11;;;;;;;;;;;14.10;99.90;;;;;;8340217;28;19924;-73
2021/10/26 13:22:13;;;;;;;;;;;14.10;99.90;;;;;;8332835;28;19921;-73
2021/10/26 13:26:17;;;;;;;;;;;14.10;99.90;;;;;;8335465;28;19928;-74
2021/10/26 13:30:19;;;;;;;;;;;14.10;99.90;;;;;;8351222;28;19947;-74
2021/10/26 13:34:21;;;;;;;;;;;14.00;99.90;;;;;;8351655;28;19970;-73
2021/10/26 13:38:25;;;;;;;;;;;14.00;99.90;;;;;;8320256;28;19925;-74
2021/10/26 13:42:29;;;;;;;;;;;14.00;99.90;;;;;;8338500;28;19925;-73
2021/10/26 13:46:30;;;;;;;;;;;14.10;99.90;;;;;;8337296;28;19921;-74
2021/10/26 13:50:32;;;;;;;;;;;14.40;99.90;;;;;;8348536;28;19921;-74
2021/10/26 13:54:34;;;;;;;;;;;14.70;99.90;;;;;;8349487;28;19924;-73
2021/10/26 13:58:35;;;;;;;;;;;14.90;99.90;;;;;;8385773;28;19968;-73
2021/10/26 14:02:38;;;;;;;;;;;15.00;99.90;;;;;;8352292;28;19920;-73
2021/10/26 14:06:40;;;;;;;;;;;14.90;99.90;;;;;;8334956;28;19924;-74
2021/10/26 14:10:43;;;;;;;;;;;14.90;99.90;;;;;;8334472;28;20288;-74
2021/10/26 14:14:45;;;;;;;;;;;14.90;99.90;;;;;;8336728;28;19925;-74
2021/10/26 14:18:46;;;;;;;;;;;14.80;99.90;;;;;;8363349;28;19925;-73
2021/10/26 14:22:49;;;;;;;;;;;14.70;99.90;;;;;;8323632;28;19928;-73
2021/10/26 14:26:51;;;;;;;;;;;14.60;99.90;;;;;;8346519;28;19928;-73
2021/10/26 14:30:54;;;;;;;;;;;14.60;99.90;;;;;;8347674;28;19944;-73
2021/10/26 14:34:58;;;;;;;;;;;14.60;99.90;;;;;;8340558;28;20371;-73
2021/10/26 14:39:09;;;;;;;;;;;14.50;99.90;;;;;;8369320;28;20391;-73
2021/10/26 14:56:12;;;;;;;;;;;14.40;99.90;;;;;;8312052;28;20406;-73
2021/10/26 15:00:14;;;;;;;;;;;14.40;99.90;;;;;;8322834;28;20412;-74
2021/10/26 15:04:16;;;;;;;;;;;14.40;99.90;;;;;;8342296;28;19933;-74
2021/10/26 15:08:18;;;;;;;;;;;14.40;99.90;;;;;;8346998;28;20289;-73
2021/10/26 15:12:24;;;;;;;;;;;14.40;99.90;;;;;;8303201;28;20250;-74
2021/10/26 15:16:26;;;;;;;;;;;14.40;99.90;;;;;;8307400;28;19932;-74
2021/10/26 15:20:27;;;;;;;;;;;14.40;99.90;;;;;;8313852;28;20020;-73
2021/10/26 15:37:13;;;;;;;;;;;14.30;99.90;;;;;;8292477;28;19925;-74
2021/10/26 15:41:18;;;;;;;;;;;14.30;99.90;;;;;;8295120;28;19925;-74
2021/10/26 15:45:20;;;;;;;;;;;14.30;99.90;;;;;;8299501;28;19963;-73
2021/10/26 15:49:21;;;;;;;;;;;14.30;99.90;;;;;;8301328;28;19926;-73
2021/10/26 15:53:23;;;;;;;;;;;14.30;99.90;;;;;;8297282;28;20278;-73
2021/10/26 15:57:25;;;;;;;;;;;14.30;99.90;;;;;;8299870;28;20019;-73
2021/10/26 16:01:26;;;;;;;;;;;14.20;99.90;;;;;;8327579;28;19925;-73
2021/10/26 16:05:29;;;;;;;;;;;14.20;99.90;;;;;;8297675;28;20615;-73
2021/10/26 16:14:14;;;;;;;;;;;14.20;99.90;;;;;;8303128;28;19991;-73
2021/10/26 16:18:16;;;;;;;;;;;14.10;99.90;;;;;;8297321;28;19925;-73
2021/10/26 16:22:17;;;;;;;;;;;14.10;99.90;;;;;;8298265;28;19921;-73
2021/10/26 16:26:20;;;;;;;;;;;14.10;99.90;;;;;;8297892;28;20398;-73
2021/10/26 16:30:25;;;;;;;;;;;14.10;99.90;;;;;;8300990;28;19925;-73
2021/10/26 16:34:26;;;;;;;;;;;14.00;99.90;;;;;;8297905;28;19971;-73
2021/10/26 16:38:28;;;;;;;;;;;14.00;99.90;;;;;;8297983;28;19925;-73
2021/10/26 16:42:54;;;;;;;;;;;14.00;99.90;;;;;;8297467;28;20008;-73
2021/10/26 16:51:06;;;;;;;;;;;14.00;99.90;;;;;;8297449;28;19925;-73
2021/10/26 16:55:08;;;;;;;;;;;14.00;99.90;;;;;;8298389;28;20471;-73
2021/10/26 16:59:10;;;;;;;;;;;14.00;99.90;;;;;;8305457;28;19922;-74
2021/10/26 17:03:11;;;;;;;;;;;13.90;99.90;;;;;;8301144;28;19921;-73
2021/10/26 17:07:14;;;;;;;;;;;13.90;99.90;;;;;;8298936;28;19929;-73
2021/10/26 17:11:17;;;;;;;;;;;13.90;99.90;;;;;;8314164;28;20016;-73
2021/10/26 17:15:21;;;;;;;;;;;13.90;99.90;;;;;;8298704;28;20368;-73
2021/10/26 17:19:23;;;;;;;;;;;13.90;99.90;;;;;;8301163;28;20341;-73
2021/10/26 17:23:25;;;;;;;;;;;13.90;99.90;;;;;;8295415;28;19951;-73
2021/10/26 17:27:27;;;;;;;;;;;13.80;99.90;;;;;;8293850;28;19925;-73
2021/10/26 17:31:29;;;;;;;;;;;13.90;99.90;;;;;;8299145;28;20244;-73
2021/10/26 17:35:31;;;;;;;;;;;13.80;99.90;;;;;;8291498;28;20391;-73
2021/10/26 17:39:34;;;;;;;;;;;13.80;99.90;;;;;;8308219;28;20008;-73
2021/10/26 17:43:37;;;;;;;;;;;13.80;99.90;;;;;;8302732;28;20677;-74
2021/10/26 17:47:39;;;;;;;;;;;13.70;99.90;;;;;;8298733;28;19925;-73
2021/10/26 17:51:42;;;;;;;;;;;13.70;99.90;;;;;;8293871;28;19925;-74
2021/10/26 17:55:44;;;;;;;;;;;13.70;99.90;;;;;;8290092;28;19949;-74
2021/10/26 17:59:45;;;;;;;;;;;13.70;99.90;;;;;;8292249;28;19925;-73
2021/10/26 18:03:53;;;;;;;;;;;13.70;99.90;;;;;;8293422;28;19975;-73
2021/10/26 18:07:59;;;;;;;;;;;13.70;99.90;;;;;;8297853;28;19929;-74
2021/10/26 18:12:03;;;;;;;;;;;13.70;99.90;;;;;;8308381;28;19943;-73
2021/10/26 18:16:05;;;;;;;;;;;13.70;99.90;;;;;;8317577;28;19925;-73
2021/10/26 18:20:08;;;;;;;;;;;13.70;99.90;;;;;;8293093;28;19930;-74
2021/10/26 18:24:11;;;;;;;;;;;13.70;99.90;;;;;;8292812;28;19921;-73
2021/10/26 18:28:13;;;;;;;;;;;13.70;99.90;;;;;;8295911;28;19922;-74
2021/10/26 18:32:15;;;;;;;;;;;13.70;99.90;;;;;;8298894;28;20377;-73
2021/10/26 18:36:17;;;;;;;;;;;13.70;99.90;;;;;;8306864;28;19925;-74
2021/10/26 18:40:23;;;;;;;;;;;13.70;99.90;;;;;;8296198;28;20031;-73
2021/10/26 18:44:39;;;;;;;;;;;13.70;99.90;;;;;;8297080;28;19921;-74
2021/10/26 18:48:42;;;;;;;;;;;13.70;99.90;;;;;;8310440;28;19922;-73
2021/10/26 18:52:44;;;;;;;;;;;13.70;99.90;;;;;;8296539;28;20361;-74
2021/10/26 18:56:46;;;;;;;;;;;13.70;99.90;;;;;;8293012;28;19925;-73
2021/10/26 19:00:48;;;;;;;;;;;13.70;99.90;;;;;;8294453;28;19925;-73
2021/10/26 19:04:49;;;;;;;;;;;13.70;99.90;;;;;;8294170;28;19929;-73
2021/10/26 19:08:51;;;;;;;;;;;13.70;99.90;;;;;;8292784;28;20380;-74
2021/10/26 19:12:53;;;;;;;;;;;13.70;99.90;;;;;;8294291;28;19921;-73
2021/10/26 19:16:55;;;;;;;;;;;13.60;99.90;;;;;;8309196;28;19936;-73
2021/10/26 19:20:58;;;;;;;;;;;13.60;99.90;;;;;;8296970;28;19939;-73
2021/10/26 19:25:00;;;;;;;;;;;13.60;99.90;;;;;;8292512;28;20270;-73
2021/10/26 19:29:05;;;;;;;;;;;13.60;99.90;;;;;;8293322;28;19928;-73
2021/10/26 19:33:06;;;;;;;;;;;13.60;99.90;;;;;;8294808;28;19936;-74
2021/10/26 19:37:09;;;;;;;;;;;13.60;99.90;;;;;;8322303;28;19925;-73
2021/10/26 19:41:11;;;;;;;;;;;13.50;99.90;;;;;;8297703;28;19928;-73
2021/10/26 19:45:12;;;;;;;;;;;13.50;99.90;;;;;;8301021;28;19929;-73
2021/10/26 19:49:16;;;;;;;;;;;13.50;99.90;;;;;;8291985;28;19925;-73
2021/10/26 19:53:17;;;;;;;;;;;13.50;99.90;;;;;;8295370;28;20361;-73
2021/10/26 19:57:19;;;;;;;;;;;13.40;99.90;;;;;;8304739;28;19991;-73
2021/10/26 20:01:20;;;;;;;;;;;13.40;99.90;;;;;;8300061;28;19928;-73
2021/10/26 20:05:22;;;;;;;;;;;13.50;99.90;;;;;;8296705;28;19964;-74
2021/10/26 20:09:25;;;;;;;;;;;13.50;99.90;;;;;;8298832;28;19932;-73
2021/10/26 20:13:27;;;;;;;;;;;13.50;99.90;;;;;;8296079;28;19922;-74
2021/10/26 20:17:29;;;;;;;;;;;13.50;99.90;;;;;;8300217;28;20320;-74
2021/10/26 20:21:44;;;;;;;;;;;13.50;99.90;;;;;;8312534;28;19921;-74
2021/10/26 20:25:46;;;;;;;;;;;13.50;99.90;;;;;;8299457;28;19987;-74
2021/10/26 20:29:51;;;;;;;;;;;13.60;99.90;;;;;;8296151;28;19987;-73
2021/10/26 20:33:52;;;;;;;;;;;13.60;99.90;;;;;;8293134;28;20392;-74
2021/10/26 20:37:54;;;;;;;;;;;13.60;99.90;;;;;;8298594;28;20372;-74
2021/10/26 20:41:56;;;;;;;;;;;13.60;99.90;;;;;;8302343;28;19925;-74
2021/10/26 20:45:58;;;;;;;;;;;13.60;99.90;;;;;;8297580;28;19933;-74
2021/10/26 20:50:00;;;;;;;;;;;13.60;99.90;;;;;;8295596;28;20391;-74
2021/10/26 20:54:11;;;;;;;;;;;13.60;99.90;;;;;;8301877;28;20340;-73
2021/10/26 20:58:12;;;;;;;;;;;13.60;99.90;;;;;;8300516;28;19929;-73
2021/10/26 21:02:15;;;;;;;;;;;13.60;99.90;;;;;;8311864;28;19921;-74
2021/10/26 21:06:17;;;;;;;;;;;13.60;99.90;;;;;;8343141;28;20369;-74
2021/10/26 21:10:18;;;;;;;;;;;13.60;99.90;;;;;;8339995;28;19921;-74
2021/10/26 21:14:20;;;;;;;;;;;13.60;99.90;;;;;;8343644;28;19940;-74
2021/10/26 21:18:22;;;;;;;;;;;13.60;99.90;;;;;;8340499;28;19932;-74
2021/10/26 21:22:24;;;;;;;;;;;13.60;99.90;;;;;;8330972;28;20373;-74
2021/10/26 21:26:26;;;;;;;;;;;13.60;99.90;;;;;;8333713;28;19943;-74
2021/10/26 21:30:28;;;;;;;;;;;13.70;99.90;;;;;;8335664;28;19931;-73
2021/10/26 21:34:39;;;;;;;;;;;13.60;99.90;;;;;;8333930;28;19991;-74
2021/10/26 21:38:40;;;;;;;;;;;13.60;99.90;;;;;;8338707;28;19920;-74
2021/10/26 21:42:42;;;;;;;;;;;13.60;99.90;;;;;;8336498;28;19925;-73
2021/10/26 21:46:44;;;;;;;;;;;13.60;99.90;;;;;;8335008;28;19921;-73
2021/10/26 21:50:46;;;;;;;;;;;13.60;99.90;;;;;;8355084;28;19924;-73
2021/10/26 21:54:48;;;;;;;;;;;13.60;99.90;;;;;;8333420;28;19928;-73
2021/10/26 21:58:49;;;;;;;;;;;13.60;99.90;;;;;;8341657;28;20253;-73
2021/10/26 22:02:51;;;;;;;;;;;13.60;99.90;;;;;;8337038;28;19951;-73
2021/10/26 22:06:53;;;;;;;;;;;13.60;99.90;;;;;;8337042;28;20300;-74
2021/10/26 22:10:55;;;;;;;;;;;13.60;99.90;;;;;;8337764;28;19944;-74
2021/10/26 22:14:57;;;;;;;;;;;13.60;99.90;;;;;;8350658;28;19921;-73
2021/10/26 22:18:59;;;;;;;;;;;13.60;99.90;;;;;;8333643;28;19931;-74
2021/10/26 22:23:01;;;;;;;;;;;13.60;99.90;;;;;;8330542;28;19954;-74
2021/10/26 22:27:03;;;;;;;;;;;13.60;99.90;;;;;;8334682;28;19928;-73
2021/10/26 22:31:04;;;;;;;;;;;13.60;99.90;;;;;;8320427;28;19948;-73
2021/10/26 22:35:06;;;;;;;;;;;13.60;99.90;;;;;;8329055;28;19925;-73
2021/10/26 22:39:08;;;;;;;;;;;13.60;99.90;;;;;;8330786;28;19979;-74
2021/10/26 22:43:10;;;;;;;;;;;13.60;99.90;;;;;;8331723;28;19928;-74
2021/10/26 22:47:11;;;;;;;;;;;13.60;99.90;;;;;;8323087;28;20323;-74
2021/10/26 22:51:13;;;;;;;;;;;13.70;99.90;;;;;;8333425;28;19921;-74
2021/10/26 22:55:15;;;;;;;;;;;13.70;99.90;;;;;;8328711;28;19964;-74
2021/10/26 22:59:16;;;;;;;;;;;13.70;99.90;;;;;;8336071;28;19928;-74
2021/10/26 23:03:19;;;;;;;;;;;13.70;99.90;;;;;;8328001;28;20324;-74
2021/10/26 23:07:20;;;;;;;;;;;13.70;99.90;;;;;;8337236;28;20276;-74
2021/10/26 23:11:22;;;;;;;;;;;13.70;99.90;;;;;;8339497;28;20261;-74
2021/10/26 23:15:24;;;;;;;;;;;13.70;99.90;;;;;;8331508;28;19925;-74
2021/10/26 23:19:25;;;;;;;;;;;13.70;99.90;;;;;;8352636;28;20357;-74
2021/10/26 23:23:27;;;;;;;;;;;13.70;99.90;;;;;;8329191;28;19999;-74
2021/10/26 23:27:29;;;;;;;;;;;13.80;99.90;;;;;;8340735;28;19929;-74
2021/10/26 23:31:31;;;;;;;;;;;13.80;99.90;;;;;;8330819;28;19928;-73
2021/10/26 23:35:32;;;;;;;;;;;13.80;99.90;;;;;;8331642;28;20237;-74
2021/10/26 23:39:34;;;;;;;;;;;13.80;99.90;;;;;;8327041;28;19940;-74
2021/10/26 23:43:36;;;;;;;;;;;13.80;99.90;;;;;;8339116;28;19928;-74
2021/10/26 23:47:37;;;;;;;;;;;13.80;99.90;;;;;;8339856;28;20380;-74
2021/10/26 23:51:39;;;;;;;;;;;13.80;99.90;;;;;;8338093;28;19976;-73
2021/10/26 23:55:41;;;;;;;;;;;13.80;99.90;;;;;;8347964;28;19928;-73
2021/10/26 23:59:42;;;;;;;;;;;13.80;99.90;;;;;;8345776;28;19925;-73
